createdAt,value
2022-10-17T00:04:07.202Z,0.20
2022-10-17T00:11:02.233Z,0.10
2022-10-17T00:26:52.130Z,0.20
2022-10-17T00:51:24.574Z,0.75
2022-10-17T00:53:52.775Z,0.45
2022-10-17T00:56:20.917Z,0.20
2022-10-17T00:58:49.037Z,0.57
2022-10-17T01:01:17.151Z,0.20
2022-10-17T01:03:45.227Z,0.25
2022-10-17T01:06:13.229Z,0.10
2022-10-17T01:08:42.636Z,0.25
2022-10-17T01:11:17.257Z,0.30
2022-10-17T01:13:50.356Z,0.43
2022-10-17T01:16:19.855Z,0.20
2022-10-17T01:18:53.944Z,0.20
2022-10-17T01:21:47.846Z,1.50
2022-10-17T01:24:38.238Z,0.70
2022-10-17T01:27:27.552Z,0.20
2022-10-17T01:30:44.673Z,0.20
2022-10-17T01:33:15.286Z,0.25
2022-10-17T01:35:46.626Z,0.22
2022-10-17T01:38:17.138Z,1.17
2022-10-17T01:40:47.618Z,0.40
2022-10-17T01:43:18.611Z,0.70
2022-10-17T01:45:48.758Z,1.67
2022-10-17T01:48:20.233Z,0.20
2022-10-17T01:50:49.802Z,0.20
2022-10-17T01:53:20.213Z,0.20
2022-10-17T01:55:48.543Z,0.20
2022-10-17T01:58:21.541Z,0.20
2022-10-17T02:00:49.593Z,0.20
2022-10-17T02:03:20.331Z,0.20
2022-10-17T02:05:48.393Z,0.30
2022-10-17T02:08:25.591Z,0.73
2022-10-17T02:10:56.349Z,0.20
2022-10-17T02:13:28.569Z,0.20
2022-10-17T02:16:02.575Z,0.73
2022-10-17T02:18:53.772Z,1.02
2022-10-17T02:21:25.343Z,0.30
2022-10-17T02:23:55.994Z,0.30
2022-10-17T02:26:27.221Z,1.77
2022-10-17T02:29:00.135Z,0.88
2022-10-17T02:31:29.861Z,0.25
2022-10-17T02:34:00.361Z,0.20
2022-10-17T02:36:30.410Z,1.27
2022-10-17T02:38:59.805Z,0.20
2022-10-17T02:44:02.482Z,0.20
2022-10-17T02:46:30.873Z,0.50
2022-10-17T02:49:02.303Z,0.20
2022-10-17T02:51:36.645Z,0.30
2022-10-17T02:54:07.153Z,0.20
2022-10-17T02:56:40.036Z,0.28
2022-10-17T02:59:08.089Z,0.20
2022-10-17T03:01:36.694Z,0.40
2022-10-17T03:04:08.549Z,0.45
2022-10-17T03:06:36.977Z,0.75
2022-10-17T03:09:05.189Z,0.20
2022-10-17T03:11:33.279Z,0.82
2022-10-17T03:14:04.317Z,0.20
2022-10-17T03:16:33.532Z,0.30
2022-10-17T03:19:01.680Z,0.20
2022-10-17T03:21:31.283Z,0.30
2022-10-17T03:23:59.466Z,0.30
2022-10-17T03:26:27.548Z,0.20
2022-10-17T03:28:55.680Z,0.22
2022-10-17T03:31:24.701Z,0.30
2022-10-17T03:33:53.714Z,0.20
2022-10-17T03:36:21.803Z,0.40
2022-10-17T03:38:54.686Z,0.20
2022-10-17T03:41:23.501Z,0.20
2022-10-17T03:43:53.410Z,0.25
2022-10-17T03:46:21.856Z,0.20
2022-10-17T03:48:50.108Z,0.20
2022-10-17T03:51:18.067Z,0.20
2022-10-17T03:53:52.706Z,0.20
2022-10-17T03:56:22.111Z,0.20
2022-10-17T03:58:58.825Z,0.20
2022-10-17T04:01:28.266Z,0.20
2022-10-17T04:03:57.360Z,0.40
2022-10-17T04:06:28.401Z,0.20
2022-10-17T04:08:57.784Z,0.25
2022-10-17T04:11:36.211Z,0.30
2022-10-17T04:14:05.069Z,0.20
2022-10-17T04:16:33.260Z,0.38
2022-10-17T04:19:04.628Z,0.20
2022-10-17T04:21:38.471Z,0.75
2022-10-17T04:24:11.421Z,0.20
2022-10-17T04:27:04.761Z,0.28
2022-10-17T04:29:35.119Z,0.28
2022-10-17T04:32:08.513Z,0.20
2022-10-17T04:34:50.086Z,0.80
2022-10-17T04:37:19.703Z,0.30
2022-10-17T04:39:51.118Z,0.20
2022-10-17T04:42:19.707Z,0.20
2022-10-17T04:44:48.101Z,0.30
2022-10-17T04:47:18.801Z,0.30
2022-10-17T04:49:47.701Z,0.50
2022-10-17T04:52:17.358Z,0.30
2022-10-17T04:54:46.920Z,0.20
2022-10-17T04:57:16.997Z,0.20
2022-10-17T04:59:53.149Z,0.20
2022-10-17T05:02:30.167Z,0.65
2022-10-17T05:04:58.858Z,0.20
2022-10-17T05:07:27.020Z,0.20
2022-10-17T05:09:54.988Z,0.20
2022-10-17T05:12:25.796Z,0.30
2022-10-17T05:14:54.963Z,0.20
2022-10-17T05:17:25.649Z,0.20
2022-10-17T05:19:54.104Z,0.30
2022-10-17T05:22:22.151Z,0.20
2022-10-17T05:24:50.450Z,0.30
2022-10-17T05:27:18.585Z,2.75
2022-10-17T05:29:48.045Z,1.20
2022-10-17T05:32:24.756Z,0.30
2022-10-17T05:34:55.243Z,0.20
2022-10-17T05:37:25.100Z,0.20
2022-10-17T05:39:56.105Z,0.30
2022-10-17T05:42:25.243Z,0.28
2022-10-17T05:44:54.914Z,0.20
2022-10-17T05:47:23.225Z,1.85
2022-10-17T05:49:52.815Z,0.20
2022-10-17T05:52:38.829Z,0.43
2022-10-17T05:55:12.045Z,0.20
2022-10-17T05:57:40.990Z,1.30
2022-10-17T06:00:15.988Z,0.20
2022-10-17T06:02:45.969Z,0.20
2022-10-17T06:05:15.920Z,0.88
2022-10-17T06:07:44.603Z,0.20
2022-10-17T06:10:16.384Z,0.20
2022-10-17T06:12:44.577Z,0.20
2022-10-17T06:15:12.671Z,0.30
2022-10-17T06:17:45.932Z,0.20
2022-10-17T06:20:14.009Z,0.20
2022-10-17T06:22:41.999Z,0.20
2022-10-17T06:25:16.031Z,0.98
2022-10-17T06:27:44.031Z,0.30
2022-10-17T06:30:13.000Z,0.20
2022-10-17T06:32:41.086Z,0.40
2022-10-17T06:35:10.978Z,2.05
2022-10-17T06:37:39.576Z,0.20
2022-10-17T06:40:12.343Z,0.20
2022-10-17T06:42:41.251Z,0.30
2022-10-17T06:45:26.215Z,0.30
2022-10-17T06:48:30.042Z,0.30
2022-10-17T06:51:18.365Z,1.05
2022-10-17T06:53:50.947Z,0.20
2022-10-17T06:56:35.166Z,0.20
2022-10-17T06:59:32.481Z,0.20
2022-10-17T07:02:12.750Z,0.30
2022-10-17T07:04:40.865Z,0.20
2022-10-17T07:07:10.251Z,0.20
2022-10-17T07:09:38.706Z,0.20
2022-10-17T07:12:08.538Z,0.40
2022-10-17T07:14:37.047Z,0.20
2022-10-17T07:17:07.029Z,0.30
2022-10-17T07:19:35.171Z,0.20
2022-10-17T07:22:03.648Z,0.25
2022-10-17T07:24:34.887Z,0.20
2022-10-17T07:27:15.077Z,0.32
2022-10-17T07:29:43.438Z,0.20
2022-10-17T07:32:22.421Z,0.30
2022-10-17T07:34:50.756Z,0.20
2022-10-17T07:37:19.330Z,0.20
2022-10-17T07:39:56.590Z,0.30
2022-10-17T07:42:24.916Z,0.20
2022-10-17T07:44:54.827Z,0.20
2022-10-17T07:47:23.943Z,0.20
2022-10-17T07:49:53.363Z,1.00
2022-10-17T07:52:21.434Z,0.20
2022-10-17T07:54:49.425Z,0.28
2022-10-17T07:57:19.538Z,0.20
2022-10-17T07:59:48.057Z,0.30
2022-10-17T08:02:18.886Z,0.17
2022-10-17T08:04:46.908Z,0.20
2022-10-17T08:07:22.034Z,0.20
2022-10-17T08:09:51.753Z,0.20
2022-10-17T08:12:23.499Z,0.20
2022-10-17T08:14:52.944Z,0.45
2022-10-17T08:17:21.730Z,0.20
2022-10-17T08:19:49.696Z,0.60
2022-10-17T08:22:17.749Z,0.20
2022-10-17T08:24:46.370Z,0.20
2022-10-17T08:27:14.489Z,0.77
2022-10-17T08:29:44.013Z,0.20
2022-10-17T08:32:12.081Z,0.20
2022-10-17T08:34:40.057Z,1.73
2022-10-17T08:37:08.186Z,0.30
2022-10-17T08:39:36.294Z,0.30
2022-10-17T08:42:28.922Z,0.22
2022-10-17T08:45:00.745Z,0.20
2022-10-17T08:47:29.854Z,0.20
2022-10-17T08:49:59.098Z,0.20
2022-10-17T08:52:33.854Z,0.30
2022-10-17T08:55:01.829Z,0.20
2022-10-17T08:57:30.058Z,1.08
2022-10-17T08:59:59.925Z,0.20
2022-10-17T09:02:40.889Z,0.25
2022-10-17T09:05:30.462Z,0.38
2022-10-17T09:08:04.106Z,0.30
2022-10-17T09:10:36.808Z,0.20
2022-10-17T09:13:11.441Z,1.15
2022-10-17T09:15:50.762Z,0.75
2022-10-17T09:18:21.939Z,0.30
2022-10-17T09:20:52.926Z,0.40
2022-10-17T09:23:22.525Z,0.20
2022-10-17T09:25:51.896Z,0.20
2022-10-17T09:28:22.435Z,0.30
2022-10-17T09:30:55.537Z,0.20
2022-10-17T09:33:35.443Z,0.20
2022-10-17T09:36:18.483Z,0.10
2022-10-17T09:38:49.368Z,0.20
2022-10-17T09:41:43.545Z,0.95
2022-10-17T09:44:18.701Z,0.30
2022-10-17T09:46:58.996Z,0.10
2022-10-17T09:49:30.991Z,0.30
2022-10-17T09:51:59.023Z,0.20
2022-10-17T09:54:30.411Z,0.20
2022-10-17T09:56:59.917Z,0.22
2022-10-17T09:59:32.773Z,0.20
2022-10-17T10:02:21.963Z,0.20
2022-10-17T10:05:09.555Z,0.20
2022-10-17T10:07:40.119Z,0.20
2022-10-17T10:10:10.015Z,0.10
2022-10-17T10:12:41.905Z,0.82
2022-10-17T10:15:34.614Z,0.70
2022-10-17T10:18:04.394Z,0.20
2022-10-17T10:20:37.779Z,0.20
2022-10-17T10:23:15.996Z,0.20
2022-10-17T10:25:55.665Z,0.20
2022-10-17T10:28:29.998Z,0.40
2022-10-17T10:30:59.073Z,0.20
2022-10-17T10:33:29.207Z,0.10
2022-10-17T10:36:05.580Z,1.00
2022-10-17T10:38:34.648Z,0.20
2022-10-17T10:41:08.559Z,0.10
2022-10-17T10:43:37.867Z,0.10
2022-10-17T10:46:07.771Z,0.10
2022-10-17T10:48:37.688Z,0.20
2022-10-17T10:51:06.567Z,0.20
2022-10-17T10:53:43.039Z,1.17
2022-10-17T10:56:14.528Z,0.20
2022-10-17T10:58:48.807Z,0.52
2022-10-17T11:01:20.367Z,0.17
2022-10-17T11:03:57.478Z,0.20
2022-10-17T11:06:28.785Z,0.20
2022-10-17T11:09:07.351Z,0.10
2022-10-17T11:11:41.315Z,0.20
2022-10-17T11:14:13.823Z,0.20
2022-10-17T11:16:46.144Z,0.20
2022-10-17T11:19:18.642Z,0.22
2022-10-17T11:21:48.750Z,0.20
2022-10-17T11:24:22.817Z,0.20
2022-10-17T11:26:56.167Z,0.20
2022-10-17T11:29:28.351Z,0.20
2022-10-17T11:31:56.839Z,0.30
2022-10-17T11:34:30.252Z,0.22
2022-10-17T11:37:03.035Z,0.20
2022-10-17T11:39:36.076Z,2.72
2022-10-17T11:42:07.910Z,0.20
2022-10-17T11:44:36.724Z,0.10
2022-10-17T11:47:06.249Z,0.20
2022-10-17T11:49:40.216Z,0.20
2022-10-17T11:52:26.958Z,0.20
2022-10-17T11:55:10.960Z,0.25
2022-10-17T11:57:46.143Z,0.20
2022-10-17T12:00:23.345Z,0.68
2022-10-17T12:02:54.624Z,0.20
2022-10-17T12:05:27.799Z,0.20
2022-10-17T12:08:00.761Z,1.75
2022-10-17T12:10:36.953Z,0.10
2022-10-17T12:13:42.390Z,0.20
2022-10-17T12:16:39.602Z,0.90
2022-10-17T12:19:34.983Z,0.45
2022-10-17T12:22:21.629Z,1.02
2022-10-17T12:25:03.180Z,0.20
2022-10-17T12:27:47.479Z,0.20
2022-10-17T12:30:24.769Z,0.20
2022-10-17T12:33:21.952Z,0.13
2022-10-17T12:35:52.377Z,0.20
2022-10-17T12:38:26.500Z,0.35
2022-10-17T12:41:02.030Z,0.57
2022-10-17T12:46:46.798Z,0.20
2022-10-17T12:49:39.342Z,0.63
2022-10-17T12:52:21.215Z,0.20
2022-10-17T12:55:13.214Z,0.20
2022-10-17T12:57:45.714Z,0.15
2022-10-17T13:00:24.198Z,0.30
2022-10-17T13:02:54.500Z,0.20
2022-10-17T13:05:28.472Z,0.20
2022-10-17T13:07:56.799Z,0.30
2022-10-17T13:10:28.492Z,0.63
2022-10-17T13:13:04.435Z,0.63
2022-10-17T13:15:33.018Z,0.10
2022-10-17T13:18:01.636Z,0.20
2022-10-17T13:20:31.846Z,0.15
2022-10-17T13:23:00.151Z,0.20
2022-10-17T13:25:30.004Z,0.90
2022-10-17T13:28:13.982Z,0.15
2022-10-17T13:30:49.824Z,0.20
2022-10-17T13:33:40.429Z,0.43
2022-10-17T13:36:14.241Z,0.20
2022-10-17T13:38:42.949Z,0.20
2022-10-17T13:44:04.229Z,0.20
2022-10-17T13:46:38.910Z,0.20
2022-10-17T13:49:25.871Z,0.20
2022-10-17T13:51:56.338Z,0.17
2022-10-17T13:54:34.258Z,0.20
2022-10-17T13:57:05.170Z,1.00
2022-10-17T13:59:35.704Z,0.45
2022-10-17T14:02:04.264Z,0.17
2022-10-17T14:04:44.732Z,0.10
2022-10-17T14:07:24.601Z,0.70
2022-10-17T14:09:52.898Z,0.35
2022-10-17T14:12:23.407Z,0.20
2022-10-17T14:15:10.749Z,0.75
2022-10-17T14:17:39.423Z,0.20
2022-10-17T14:20:40.766Z,0.28
2022-10-17T14:23:21.079Z,0.20
2022-10-17T14:25:44.448Z,0.25
2022-10-17T14:28:18.512Z,0.10
2022-10-17T14:31:02.697Z,0.20
2022-10-17T14:33:33.364Z,0.20
2022-10-17T14:36:03.134Z,0.32
2022-10-17T14:38:31.182Z,0.40
2022-10-17T14:41:23.293Z,0.77
2022-10-17T14:43:58.024Z,1.98
2022-10-17T14:46:26.475Z,0.20
2022-10-17T14:48:57.476Z,0.20
2022-10-17T14:51:25.916Z,0.30
2022-10-17T14:54:05.765Z,0.90
2022-10-17T14:56:38.945Z,2.10
2022-10-17T14:59:21.559Z,0.30
2022-10-17T15:01:58.346Z,0.25
2022-10-17T15:04:26.402Z,0.30
2022-10-17T15:06:55.499Z,0.20
2022-10-17T15:09:31.077Z,0.10
2022-10-17T15:12:01.090Z,0.20
2022-10-17T15:14:30.602Z,0.63
2022-10-17T15:16:58.894Z,0.28
2022-10-17T15:19:27.039Z,0.30
2022-10-17T15:21:55.143Z,0.20
2022-10-17T15:24:23.376Z,0.10
2022-10-17T15:26:52.126Z,0.85
2022-10-17T15:29:20.182Z,0.20
2022-10-17T15:31:50.038Z,0.10
2022-10-17T15:34:18.143Z,0.20
2022-10-17T15:36:51.934Z,0.20
2022-10-17T15:39:20.096Z,0.20
2022-10-17T15:41:51.927Z,0.25
2022-10-17T15:44:22.039Z,0.10
2022-10-17T15:46:51.643Z,0.10
2022-10-17T15:49:19.768Z,0.10
2022-10-17T15:51:51.707Z,0.50
2022-10-17T15:54:23.457Z,0.40
2022-10-17T15:56:57.932Z,1.23
2022-10-17T15:59:30.581Z,1.30
2022-10-17T16:02:00.007Z,0.20
2022-10-17T16:04:30.765Z,0.10
2022-10-17T16:07:01.612Z,0.32
2022-10-17T16:09:30.055Z,0.90
2022-10-17T16:11:58.051Z,0.20
2022-10-17T16:14:26.243Z,0.22
2022-10-17T16:16:54.243Z,0.55
2022-10-17T16:19:23.722Z,0.98
2022-10-17T16:21:51.679Z,0.20
2022-10-17T16:24:20.924Z,1.33
2022-10-17T16:26:48.834Z,0.20
2022-10-17T16:29:16.941Z,1.42
2022-10-17T16:31:45.943Z,0.73
2022-10-17T16:34:14.595Z,0.85
2022-10-17T16:36:44.045Z,0.20
2022-10-17T16:39:12.428Z,0.40
2022-10-17T16:41:41.089Z,0.20
2022-10-17T16:44:10.246Z,0.30
2022-10-17T16:46:38.712Z,0.17
2022-10-17T16:49:06.975Z,0.20
2022-10-17T16:51:35.999Z,0.20
2022-10-17T16:54:13.605Z,2.88
2022-10-17T16:56:42.668Z,0.20
2022-10-17T16:59:10.946Z,0.20
2022-10-17T17:01:39.226Z,0.20
2022-10-17T17:04:09.151Z,0.20
2022-10-17T17:06:38.268Z,1.85
2022-10-17T17:09:09.275Z,0.20
2022-10-17T17:11:37.697Z,0.20
2022-10-17T17:14:06.148Z,0.20
2022-10-17T17:16:34.848Z,0.22
2022-10-17T17:19:04.522Z,1.58
2022-10-17T17:21:32.679Z,0.35
2022-10-17T17:24:03.540Z,0.20
2022-10-17T17:26:36.235Z,0.20
2022-10-17T17:29:04.599Z,0.30
2022-10-17T17:31:33.650Z,0.20
2022-10-17T17:34:01.932Z,0.28
2022-10-17T17:36:31.262Z,0.20
2022-10-17T17:39:00.851Z,0.20
2022-10-17T17:41:30.761Z,0.50
2022-10-17T17:44:00.470Z,0.30
2022-10-17T17:46:28.715Z,0.30
2022-10-17T17:48:57.068Z,0.55
2022-10-17T17:51:28.269Z,0.20
2022-10-17T17:53:57.898Z,0.20
2022-10-17T17:56:27.531Z,0.50
2022-10-17T17:58:56.977Z,0.20
2022-10-17T18:01:36.806Z,0.20
2022-10-17T18:04:05.149Z,0.40
2022-10-17T18:06:33.310Z,0.20
2022-10-17T18:09:01.613Z,0.20
2022-10-17T18:11:29.757Z,0.20
2022-10-17T18:13:58.764Z,0.95
2022-10-17T18:16:26.909Z,1.75
2022-10-17T18:18:56.433Z,0.60
2022-10-17T18:21:24.502Z,0.95
2022-10-17T18:23:52.902Z,0.20
2022-10-17T18:26:21.024Z,1.75
2022-10-17T18:28:49.807Z,0.40
2022-10-17T18:31:22.195Z,0.20
2022-10-17T18:33:53.830Z,0.20
2022-10-17T18:36:23.285Z,0.32
2022-10-17T18:38:51.566Z,2.67
2022-10-17T18:41:20.945Z,0.47
2022-10-17T18:43:49.741Z,0.30
2022-10-17T18:46:19.284Z,0.43
2022-10-17T18:48:47.802Z,0.20
2022-10-17T18:51:16.630Z,0.63
2022-10-17T18:53:46.916Z,1.80
2022-10-17T18:56:15.016Z,8.40
2022-10-17T18:58:43.102Z,8.45
2022-10-17T19:01:15.368Z,10.35
2022-10-17T19:03:43.865Z,4.18
2022-10-17T19:06:13.332Z,4.25
2022-10-17T19:08:41.853Z,5.43
2022-10-17T19:11:12.193Z,3.80
2022-10-17T19:13:40.779Z,2.10
2022-10-17T19:16:09.444Z,3.35
2022-10-17T19:18:37.577Z,2.65
2022-10-17T19:21:06.366Z,4.07
2022-10-17T19:23:35.559Z,5.03
2022-10-17T19:26:04.033Z,1.50
2022-10-17T19:28:33.663Z,2.55
2022-10-17T19:31:01.955Z,9.48
2022-10-17T19:33:32.792Z,13.23
2022-10-17T19:36:02.983Z,13.18
2022-10-17T19:38:31.346Z,18.52
2022-10-17T19:43:34.555Z,15.93
2022-10-17T19:46:04.308Z,18.00
2022-10-17T19:48:32.915Z,15.18
2022-10-17T19:51:01.004Z,22.15
2022-10-17T19:53:29.680Z,12.85
2022-10-17T19:56:00.279Z,12.35
2022-10-17T19:58:28.524Z,14.50
2022-10-17T20:01:01.065Z,8.48
2022-10-17T20:03:29.333Z,7.22
2022-10-17T20:05:57.516Z,11.25
2022-10-17T20:10:54.490Z,7.63
2022-10-17T20:13:22.819Z,7.15
2022-10-17T20:15:58.951Z,2.47
2022-10-17T20:18:27.602Z,7.13
2022-10-17T20:20:55.800Z,2.75
2022-10-17T20:23:24.362Z,6.10
2022-10-17T20:26:06.823Z,1.85
2022-10-17T20:28:47.276Z,1.83
2022-10-17T20:31:16.922Z,0.63
2022-10-17T20:33:45.257Z,1.75
2022-10-17T20:36:14.137Z,2.30
2022-10-17T20:38:42.475Z,1.38
2022-10-17T20:41:10.858Z,1.13
2022-10-17T20:43:39.019Z,0.80
2022-10-17T20:46:22.978Z,0.98
2022-10-17T20:49:00.200Z,1.00
2022-10-17T20:51:28.321Z,0.32
2022-10-17T20:56:27.477Z,10.70
2022-10-17T20:58:59.701Z,1.45
2022-10-17T21:01:28.237Z,0.50
2022-10-17T21:04:06.163Z,0.20
2022-10-17T21:06:38.923Z,0.90
2022-10-17T21:09:07.194Z,0.20
2022-10-17T21:11:35.257Z,0.30
2022-10-17T21:14:04.474Z,0.25
2022-10-17T21:16:33.345Z,0.30
2022-10-17T21:19:03.242Z,0.25
2022-10-17T21:21:33.819Z,1.48
2022-10-17T21:24:03.110Z,4.30
2022-10-17T21:26:32.924Z,0.77
2022-10-17T21:29:05.067Z,2.15
2022-10-17T21:31:33.805Z,0.30
2022-10-17T21:34:06.510Z,0.75
2022-10-17T21:36:34.735Z,0.40
2022-10-17T21:39:05.525Z,0.40
2022-10-17T21:41:33.710Z,0.30
2022-10-17T21:44:03.344Z,0.30
2022-10-17T21:46:31.605Z,0.40
2022-10-17T21:49:00.049Z,0.20
2022-10-17T21:51:29.750Z,0.50
2022-10-17T21:53:58.784Z,0.40
2022-10-17T21:56:29.886Z,0.40
2022-10-17T21:58:57.955Z,0.95
2022-10-17T22:01:27.080Z,0.20
2022-10-17T22:03:56.013Z,0.30
2022-10-17T22:06:39.305Z,0.30
2022-10-17T22:09:11.156Z,0.65
2022-10-17T22:11:39.187Z,0.20
2022-10-17T22:14:08.989Z,0.50
2022-10-17T22:16:37.136Z,1.20
2022-10-17T22:19:06.478Z,0.40
2022-10-17T22:21:36.391Z,6.13
2022-10-17T22:24:07.292Z,0.77
2022-10-17T22:26:37.538Z,2.75
2022-10-17T22:29:05.869Z,5.50
2022-10-17T22:31:33.888Z,0.57
2022-10-17T22:34:02.434Z,0.60
2022-10-17T22:36:31.582Z,0.22
2022-10-17T22:38:59.578Z,0.55
2022-10-17T22:41:27.588Z,0.30
2022-10-17T22:43:56.965Z,0.80
2022-10-17T22:46:25.043Z,0.20
2022-10-17T22:48:53.030Z,0.20
2022-10-17T22:51:21.260Z,0.30
2022-10-17T22:57:30.267Z,0.52
2022-10-17T22:59:59.640Z,0.38
2022-10-17T23:02:27.838Z,0.30
2022-10-17T23:04:55.972Z,0.25
2022-10-17T23:07:24.098Z,0.30
2022-10-17T23:09:52.129Z,0.30
2022-10-17T23:12:20.316Z,0.32
2022-10-17T23:14:48.345Z,0.20
2022-10-17T23:17:17.752Z,0.20
2022-10-17T23:19:45.889Z,0.30
2022-10-17T23:22:19.015Z,0.20
2022-10-17T23:24:48.361Z,0.55
2022-10-17T23:27:16.441Z,1.42
2022-10-17T23:29:44.975Z,0.20
2022-10-17T23:32:13.081Z,0.20
2022-10-17T23:34:42.778Z,0.30
2022-10-17T23:37:11.392Z,0.20
2022-10-17T23:39:39.384Z,0.20
2022-10-17T23:42:07.738Z,1.02
2022-10-17T23:44:36.077Z,0.32
2022-10-17T23:47:04.199Z,0.40
2022-10-17T23:49:32.393Z,0.30
2022-10-17T23:52:01.973Z,0.30
2022-10-17T23:54:30.468Z,0.30
2022-10-17T23:56:58.492Z,0.30
2022-10-17T23:59:26.883Z,0.30
